createdAt,value
2019-06-08T00:00:50.748Z,12.87
2019-06-08T00:03:20.700Z,12.83
2019-06-08T00:05:46.629Z,12.94
2019-06-08T00:08:16.768Z,12.87
2019-06-08T00:10:42.919Z,12.73
2019-06-08T00:13:08.789Z,12.63
2019-06-08T00:15:34.583Z,12.54
2019-06-08T00:18:03.335Z,12.48
2019-06-08T00:20:29.161Z,12.48
2019-06-08T00:23:02.586Z,12.52
2019-06-08T00:25:28.437Z,12.68
2019-06-08T00:27:54.547Z,12.71
2019-06-08T00:30:21.179Z,12.60
2019-06-08T00:32:47.010Z,12.71
2019-06-08T00:35:14.481Z,12.72
2019-06-08T00:37:40.359Z,12.67
2019-06-08T00:40:06.452Z,12.75
2019-06-08T00:42:32.289Z,12.78
2019-06-08T00:45:01.229Z,12.76
2019-06-08T00:47:44.954Z,12.67
2019-06-08T00:49:54.792Z,12.60
2019-06-08T00:52:21.063Z,12.42
2019-06-08T00:54:49.952Z,12.33
2019-06-08T00:57:15.779Z,12.37
2019-06-08T00:59:44.491Z,12.45
2019-06-08T01:02:10.317Z,12.49
2019-06-08T01:04:36.120Z,12.46
2019-06-08T01:07:02.020Z,12.55
2019-06-08T01:09:27.850Z,12.62
2019-06-08T01:11:56.698Z,12.56
2019-06-08T01:14:22.951Z,12.67
2019-06-08T01:16:51.598Z,12.71
2019-06-08T01:19:19.089Z,12.70
2019-06-08T01:21:44.986Z,12.57
2019-06-08T01:24:10.805Z,12.46
2019-06-08T01:26:40.332Z,12.40
2019-06-08T01:29:06.571Z,12.41
2019-06-08T01:31:35.134Z,12.24
2019-06-08T01:34:00.954Z,12.52
2019-06-08T01:36:29.576Z,12.57
2019-06-08T01:38:55.390Z,12.52
2019-06-08T01:41:21.371Z,12.42
2019-06-08T01:43:47.219Z,12.40
2019-06-08T01:46:13.025Z,12.32
2019-06-08T01:48:42.014Z,12.27
2019-06-08T01:51:07.942Z,12.31
2019-06-08T01:53:36.497Z,12.37
2019-06-08T01:56:02.304Z,12.46
2019-06-08T01:58:31.447Z,12.62
2019-06-08T02:00:57.361Z,12.72
2019-06-08T02:03:26.393Z,12.68
2019-06-08T02:05:52.511Z,12.76
2019-06-08T02:08:21.097Z,12.85
2019-06-08T02:10:46.896Z,12.99
2019-06-08T02:13:15.763Z,13.09
2019-06-08T02:15:41.943Z,13.07
2019-06-08T02:18:07.876Z,13.17
2019-06-08T02:20:35.205Z,13.17
2019-06-08T02:23:01.122Z,13.22
2019-06-08T02:25:27.337Z,13.26
2019-06-08T02:27:53.926Z,13.26
2019-06-08T02:30:30.581Z,13.29
2019-06-08T02:32:57.848Z,13.15
2019-06-08T02:35:23.684Z,13.06
2019-06-08T02:37:49.766Z,13.02
2019-06-08T02:40:15.908Z,12.93
2019-06-08T02:42:41.725Z,12.94
2019-06-08T02:45:07.703Z,13.03
2019-06-08T02:47:34.491Z,12.92
2019-06-08T02:50:00.308Z,12.92
2019-06-08T02:52:27.323Z,12.97
2019-06-08T02:54:54.458Z,13.04
2019-06-08T02:57:22.017Z,12.97
2019-06-08T02:59:48.215Z,12.84
2019-06-08T03:02:16.016Z,12.80
2019-06-08T03:04:41.820Z,12.78
2019-06-08T03:07:08.512Z,12.78
2019-06-08T03:09:36.503Z,12.83
2019-06-08T03:12:03.085Z,12.86
2019-06-08T03:14:31.046Z,12.93
2019-06-08T03:16:57.000Z,12.92
2019-06-08T03:19:23.238Z,12.85
2019-06-08T03:21:52.130Z,12.86
2019-06-08T03:24:17.980Z,12.72
2019-06-08T03:26:46.807Z,12.63
2019-06-08T03:29:12.641Z,12.52
2019-06-08T03:31:46.467Z,12.42
2019-06-08T03:34:06.152Z,12.39
2019-06-08T03:36:34.938Z,12.30
2019-06-08T03:38:59.772Z,12.27
2019-06-08T03:41:25.572Z,12.26
2019-06-08T03:43:51.673Z,12.22
2019-06-08T03:46:17.493Z,12.32
2019-06-08T03:48:46.573Z,12.27
2019-06-08T03:51:12.456Z,12.28
2019-06-08T03:53:44.401Z,12.35
2019-06-08T03:56:10.253Z,12.40
2019-06-08T03:58:37.102Z,12.43
2019-06-08T04:01:04.025Z,12.46
2019-06-08T04:03:31.219Z,12.45
2019-06-08T04:05:57.056Z,12.42
2019-06-08T04:08:22.887Z,12.43
2019-06-08T04:10:50.241Z,12.49
2019-06-08T04:13:16.179Z,12.49
2019-06-08T04:15:42.631Z,12.48
2019-06-08T04:18:09.696Z,12.53
2019-06-08T04:20:40.064Z,12.48
2019-06-08T04:23:06.319Z,12.58
2019-06-08T04:25:32.428Z,12.60
2019-06-08T04:27:58.214Z,12.63
2019-06-08T04:30:29.218Z,12.52
2019-06-08T04:32:55.297Z,12.72
2019-06-08T04:35:21.354Z,12.75
2019-06-08T04:37:47.216Z,12.75
2019-06-08T04:40:16.400Z,12.80
2019-06-08T04:42:44.418Z,12.81
2019-06-08T04:45:10.357Z,12.83
2019-06-08T04:47:36.376Z,12.81
2019-06-08T04:50:21.942Z,12.80
2019-06-08T04:52:34.302Z,12.80
2019-06-08T04:55:00.134Z,12.82
2019-06-08T04:57:26.175Z,12.78
2019-06-08T04:59:52.282Z,12.81
2019-06-08T05:02:18.357Z,12.84
2019-06-08T05:04:45.331Z,12.86
2019-06-08T05:07:12.334Z,12.80
2019-06-08T05:09:39.066Z,12.87
2019-06-08T05:12:08.107Z,12.94
2019-06-08T05:14:33.965Z,12.95
2019-06-08T05:17:03.109Z,12.92
2019-06-08T05:19:29.230Z,12.98
2019-06-08T05:21:55.054Z,13.00
2019-06-08T05:24:21.076Z,13.05
2019-06-08T05:26:47.378Z,13.07
2019-06-08T05:29:13.504Z,13.11
2019-06-08T05:31:39.442Z,13.08
2019-06-08T05:34:08.297Z,13.09
2019-06-08T05:36:34.142Z,13.15
2019-06-08T05:39:05.538Z,13.13
2019-06-08T05:41:31.615Z,13.09
2019-06-08T05:43:57.416Z,13.14
2019-06-08T05:46:23.218Z,13.15
2019-06-08T05:48:51.012Z,13.21
2019-06-08T05:51:16.942Z,13.20
2019-06-08T05:53:50.285Z,13.20
2019-06-08T05:56:16.215Z,13.21
2019-06-08T05:58:42.015Z,13.19
2019-06-08T06:01:07.822Z,13.22
2019-06-08T06:03:33.632Z,13.24
2019-06-08T06:05:59.703Z,13.19
2019-06-08T06:08:25.753Z,13.23
2019-06-08T06:10:54.456Z,13.24
2019-06-08T06:13:20.283Z,13.46
2019-06-08T06:15:49.100Z,13.59
2019-06-08T06:18:14.904Z,13.74
2019-06-08T06:20:45.268Z,13.84
2019-06-08T06:23:11.200Z,13.89
2019-06-08T06:25:37.291Z,14.05
2019-06-08T06:28:06.300Z,14.14
2019-06-08T06:30:32.636Z,14.37
2019-06-08T06:32:58.727Z,14.45
2019-06-08T06:35:24.539Z,14.60
2019-06-08T06:37:50.365Z,14.53
2019-06-08T06:40:16.172Z,14.72
2019-06-08T06:42:45.950Z,14.78
2019-06-08T06:45:12.147Z,14.83
2019-06-08T06:47:37.957Z,14.84
2019-06-08T06:50:04.672Z,14.79
2019-06-08T06:52:33.232Z,14.76
2019-06-08T06:54:59.309Z,14.77
2019-06-08T06:57:28.132Z,14.72
2019-06-08T06:59:54.235Z,14.86
2019-06-08T07:02:23.219Z,15.09
2019-06-08T07:04:49.952Z,15.17
2019-06-08T07:07:18.843Z,15.22
2019-06-08T07:09:44.637Z,15.37
2019-06-08T07:12:10.710Z,15.38
2019-06-08T07:14:36.535Z,15.45
2019-06-08T07:17:02.818Z,15.57
2019-06-08T07:19:28.633Z,15.65
2019-06-08T07:21:54.800Z,15.71
2019-06-08T07:24:23.415Z,15.68
2019-06-08T07:26:50.430Z,15.74
2019-06-08T07:29:19.371Z,15.81
2019-06-08T07:31:45.197Z,15.97
2019-06-08T07:34:12.601Z,16.16
2019-06-08T07:36:38.724Z,16.07
2019-06-08T07:39:07.831Z,16.18
2019-06-08T07:41:33.794Z,16.09
2019-06-08T07:44:02.842Z,16.09
2019-06-08T07:46:30.663Z,16.25
2019-06-08T07:49:01.704Z,16.24
2019-06-08T07:51:27.809Z,16.42
2019-06-08T07:53:53.648Z,16.42
2019-06-08T07:56:21.600Z,16.49
2019-06-08T07:58:49.547Z,16.56
2019-06-08T08:01:15.153Z,16.38
2019-06-08T08:03:40.956Z,16.43
2019-06-08T08:06:06.991Z,16.48
2019-06-08T08:08:32.792Z,16.55
2019-06-08T08:10:58.846Z,16.77
2019-06-08T08:13:24.683Z,16.94
2019-06-08T08:15:55.045Z,16.83
2019-06-08T08:18:21.597Z,16.93
2019-06-08T08:20:49.340Z,17.02
2019-06-08T08:23:17.286Z,17.10
2019-06-08T08:25:42.998Z,17.08
2019-06-08T08:28:09.107Z,17.06
2019-06-08T08:30:37.539Z,17.27
2019-06-08T08:33:03.600Z,17.23
2019-06-08T08:35:29.650Z,17.34
2019-06-08T08:38:00.483Z,17.59
2019-06-08T08:40:23.567Z,17.44
2019-06-08T08:42:50.586Z,17.36
2019-06-08T08:45:18.295Z,17.48
2019-06-08T08:47:44.207Z,17.43
2019-06-08T08:50:10.220Z,17.45
2019-06-08T08:52:40.924Z,17.71
2019-06-08T08:55:08.350Z,17.67
2019-06-08T08:57:34.713Z,17.67
2019-06-08T09:00:03.494Z,17.67
2019-06-08T09:02:28.290Z,17.62
2019-06-08T09:04:55.247Z,17.62
2019-06-08T09:07:21.168Z,17.73
2019-06-08T09:09:48.214Z,17.92
2019-06-08T09:12:14.369Z,18.16
2019-06-08T09:14:41.587Z,18.08
2019-06-08T09:17:08.720Z,17.92
2019-06-08T09:19:34.758Z,17.92
2019-06-08T09:22:02.723Z,18.03
2019-06-08T09:24:28.926Z,18.20
2019-06-08T09:26:56.753Z,18.20
2019-06-08T09:29:24.246Z,18.62
2019-06-08T09:31:50.092Z,19.03
2019-06-08T09:34:19.647Z,19.03
2019-06-08T09:36:47.795Z,19.38
2019-06-08T09:39:13.821Z,19.32
2019-06-08T09:41:39.805Z,19.37
2019-06-08T09:44:10.617Z,19.29
2019-06-08T09:46:33.632Z,19.20
2019-06-08T09:49:04.758Z,19.20
2019-06-08T09:51:28.567Z,19.08
2019-06-08T09:53:55.897Z,19.56
2019-06-08T09:56:22.623Z,19.56
2019-06-08T09:58:51.351Z,19.81
2019-06-08T10:01:18.294Z,20.20
2019-06-08T10:03:43.855Z,20.11
2019-06-08T10:06:12.450Z,19.99
2019-06-08T10:08:38.816Z,19.93
2019-06-08T10:11:06.041Z,19.68
2019-06-08T10:13:32.593Z,19.87
2019-06-08T10:16:01.758Z,19.72
2019-06-08T10:18:28.340Z,19.61
2019-06-08T10:20:54.754Z,19.33
2019-06-08T10:23:30.740Z,19.33
2019-06-08T10:25:48.359Z,19.34
2019-06-08T10:28:18.527Z,19.61
2019-06-08T10:30:41.916Z,19.72
2019-06-08T10:33:10.087Z,19.36
2019-06-08T10:35:38.095Z,19.49
2019-06-08T10:38:07.967Z,19.73
2019-06-08T10:40:31.800Z,19.61
2019-06-08T10:43:00.704Z,19.72
2019-06-08T10:45:25.455Z,19.85
2019-06-08T10:47:51.238Z,19.95
2019-06-08T10:50:19.230Z,20.17
2019-06-08T10:52:45.270Z,20.31
2019-06-08T10:55:12.210Z,20.80
2019-06-08T10:57:38.335Z,20.81
2019-06-08T11:00:18.048Z,20.70
2019-06-08T11:02:37.583Z,20.75
2019-06-08T11:05:10.014Z,21.04
2019-06-08T11:07:33.366Z,21.49
2019-06-08T11:10:00.253Z,21.79
2019-06-08T11:12:28.314Z,21.85
2019-06-08T11:14:54.253Z,21.51
2019-06-08T11:17:20.324Z,21.37
2019-06-08T11:19:48.011Z,21.57
2019-06-08T11:22:15.007Z,21.84
2019-06-08T11:24:41.425Z,21.28
2019-06-08T11:27:10.602Z,21.47
2019-06-08T11:29:34.960Z,21.24
2019-06-08T11:32:02.042Z,21.17
2019-06-08T11:34:28.741Z,21.07
2019-06-08T11:36:54.645Z,21.69
2019-06-08T11:39:20.459Z,22.14
2019-06-08T11:41:48.386Z,22.50
2019-06-08T11:44:14.960Z,22.27
2019-06-08T11:46:42.694Z,22.03
2019-06-08T11:49:14.351Z,22.57
2019-06-08T11:51:37.874Z,22.44
2019-06-08T11:54:05.046Z,21.98
2019-06-08T11:56:32.216Z,21.74
2019-06-08T11:59:01.083Z,21.87
2019-06-08T12:01:27.714Z,21.81
2019-06-08T12:03:53.905Z,22.38
2019-06-08T12:06:23.365Z,23.41
2019-06-08T12:08:47.918Z,23.34
2019-06-08T12:11:18.125Z,23.18
2019-06-08T12:13:41.602Z,22.91
2019-06-08T12:16:11.639Z,22.57
2019-06-08T12:18:35.211Z,22.77
2019-06-08T12:21:01.586Z,23.00
2019-06-08T12:23:27.710Z,22.89
2019-06-08T12:25:53.492Z,23.03
2019-06-08T12:28:19.578Z,23.12
2019-06-08T12:30:47.684Z,23.09
2019-06-08T12:33:15.307Z,23.02
2019-06-08T12:35:41.254Z,22.70
2019-06-08T12:38:09.579Z,23.10
2019-06-08T12:40:35.001Z,24.01
2019-06-08T12:43:00.809Z,24.60
2019-06-08T12:45:27.623Z,24.51
2019-06-08T12:47:53.529Z,23.85
2019-06-08T12:50:20.077Z,23.59
2019-06-08T12:52:47.636Z,22.90
2019-06-08T12:55:19.424Z,22.62
2019-06-08T12:57:41.642Z,22.49
2019-06-08T13:00:09.756Z,23.27
2019-06-08T13:02:38.255Z,23.96
2019-06-08T13:05:04.895Z,23.58
2019-06-08T13:07:30.950Z,23.32
2019-06-08T13:09:58.321Z,23.86
2019-06-08T13:12:24.530Z,24.29
2019-06-08T13:14:50.669Z,24.98
2019-06-08T13:17:19.302Z,24.83
2019-06-08T13:19:44.375Z,25.59
2019-06-08T13:22:10.783Z,26.01
2019-06-08T13:24:37.636Z,25.95
2019-06-08T13:27:03.916Z,26.38
2019-06-08T13:29:30.001Z,26.71
2019-06-08T13:31:58.612Z,26.83
2019-06-08T13:34:24.600Z,27.10
2019-06-08T13:36:53.208Z,27.32
2019-06-08T13:39:21.227Z,27.55
2019-06-08T13:41:48.214Z,27.82
2019-06-08T13:44:14.101Z,27.85
2019-06-08T13:46:41.715Z,27.58
2019-06-08T13:49:08.289Z,27.73
2019-06-08T13:51:38.405Z,27.50
2019-06-08T13:54:04.472Z,27.05
2019-06-08T13:56:30.292Z,26.77
2019-06-08T13:58:56.129Z,26.72
2019-06-08T14:01:22.212Z,27.13
2019-06-08T14:03:50.035Z,26.60
2019-06-08T14:06:18.279Z,26.39
2019-06-08T14:08:44.187Z,26.45
2019-06-08T14:11:10.009Z,26.53
2019-06-08T14:13:38.074Z,26.91
2019-06-08T14:16:04.033Z,27.02
2019-06-08T14:18:34.320Z,27.20
2019-06-08T14:21:00.324Z,27.06
2019-06-08T14:23:26.127Z,26.99
2019-06-08T14:25:56.750Z,26.60
2019-06-08T14:28:22.898Z,26.52
2019-06-08T14:30:48.852Z,26.57
2019-06-08T14:33:14.965Z,27.12
2019-06-08T14:35:41.073Z,27.67
2019-06-08T14:38:07.122Z,27.88
2019-06-08T14:40:33.263Z,27.78
2019-06-08T14:42:59.274Z,27.55
2019-06-08T14:45:30.852Z,27.30
2019-06-08T14:47:56.030Z,27.61
2019-06-08T14:50:22.932Z,27.69
2019-06-08T14:52:50.435Z,27.61
2019-06-08T14:55:19.811Z,26.82
2019-06-08T14:57:44.034Z,26.64
2019-06-08T15:00:14.728Z,27.08
2019-06-08T15:02:40.529Z,27.09
2019-06-08T15:05:07.871Z,27.29
2019-06-08T15:07:34.060Z,27.00
2019-06-08T15:09:59.877Z,26.68
2019-06-08T15:12:28.055Z,26.71
2019-06-08T15:14:53.351Z,26.80
2019-06-08T15:17:19.512Z,26.32
2019-06-08T15:19:47.401Z,26.62
2019-06-08T15:22:13.102Z,26.55
2019-06-08T15:24:38.920Z,26.78
2019-06-08T15:27:08.134Z,26.77
2019-06-08T15:29:33.973Z,27.06
2019-06-08T15:32:03.339Z,27.25
2019-06-08T15:34:31.156Z,27.39
2019-06-08T15:36:57.549Z,27.54
2019-06-08T15:39:23.802Z,27.19
2019-06-08T15:41:53.004Z,27.02
2019-06-08T15:44:21.423Z,26.63
2019-06-08T15:46:52.592Z,26.81
2019-06-08T15:49:18.699Z,26.81
2019-06-08T15:51:44.584Z,26.20
2019-06-08T15:54:10.391Z,25.50
2019-06-08T15:56:48.141Z,25.47
2019-06-08T15:59:03.928Z,25.35
2019-06-08T16:01:29.749Z,25.32
2019-06-08T16:03:55.609Z,25.53
2019-06-08T16:06:21.734Z,25.61
2019-06-08T16:08:47.582Z,25.60
2019-06-08T16:11:13.391Z,25.76
2019-06-08T16:13:43.251Z,25.81
2019-06-08T16:16:09.075Z,25.80
2019-06-08T16:18:37.634Z,25.83
2019-06-08T16:21:03.548Z,25.74
2019-06-08T16:23:29.972Z,25.38
2019-06-08T16:25:56.118Z,25.46
2019-06-08T16:28:21.922Z,25.19
2019-06-08T16:30:49.089Z,25.29
2019-06-08T16:33:14.911Z,25.23
2019-06-08T16:35:42.751Z,25.01
2019-06-08T16:38:08.567Z,25.08
2019-06-08T16:40:41.405Z,25.22
2019-06-08T16:43:07.212Z,25.10
2019-06-08T16:45:33.385Z,24.99
2019-06-08T16:47:59.501Z,25.07
2019-06-08T16:50:28.578Z,24.95
2019-06-08T16:52:54.461Z,24.72
2019-06-08T16:55:23.221Z,24.42
2019-06-08T16:57:49.280Z,24.35
2019-06-08T17:00:30.846Z,24.50
2019-06-08T17:02:46.632Z,24.18
2019-06-08T17:05:12.814Z,24.15
2019-06-08T17:07:39.755Z,24.07
2019-06-08T17:10:06.287Z,23.91
2019-06-08T17:12:32.832Z,23.82
2019-06-08T17:14:58.688Z,23.60
2019-06-08T17:17:24.804Z,23.61
2019-06-08T17:19:50.597Z,23.46
2019-06-08T17:22:19.477Z,23.34
2019-06-08T17:24:45.523Z,23.26
2019-06-08T17:27:26.350Z,23.16
2019-06-08T17:29:41.876Z,23.04
2019-06-08T17:32:07.704Z,22.85
2019-06-08T17:34:34.931Z,22.82
2019-06-08T17:37:01.262Z,22.72
2019-06-08T17:39:29.488Z,22.70
2019-06-08T17:41:55.465Z,22.57
2019-06-08T17:44:21.520Z,22.37
2019-06-08T17:46:47.346Z,22.24
2019-06-08T17:49:14.579Z,22.13
2019-06-08T17:51:41.852Z,22.08
2019-06-08T17:54:08.956Z,21.89
2019-06-08T17:56:35.467Z,21.86
2019-06-08T17:59:04.381Z,21.81
2019-06-08T18:01:37.708Z,21.73
2019-06-08T18:04:02.461Z,21.72
2019-06-08T18:06:28.507Z,21.55
2019-06-08T18:08:54.336Z,21.52
2019-06-08T18:11:20.170Z,21.56
2019-06-08T18:13:48.376Z,21.44
2019-06-08T18:16:14.003Z,21.23
2019-06-08T18:18:41.866Z,21.23
2019-06-08T18:21:08.133Z,21.10
2019-06-08T18:23:34.362Z,21.17
2019-06-08T18:26:00.197Z,20.96
2019-06-08T18:28:27.867Z,20.88
2019-06-08T18:30:53.820Z,20.77
2019-06-08T18:33:19.885Z,20.63
2019-06-08T18:35:49.669Z,20.55
2019-06-08T18:38:17.785Z,20.53
2019-06-08T18:40:43.483Z,20.49
2019-06-08T18:43:09.390Z,20.52
2019-06-08T18:45:41.483Z,20.41
2019-06-08T18:48:07.190Z,20.36
2019-06-08T18:50:33.290Z,20.32
2019-06-08T18:52:59.360Z,20.34
2019-06-08T18:55:27.532Z,20.30
2019-06-08T18:57:53.178Z,20.17
2019-06-08T19:00:22.800Z,20.02
2019-06-08T19:02:50.058Z,19.94
2019-06-08T19:05:20.825Z,19.84
2019-06-08T19:07:45.441Z,19.78
2019-06-08T19:10:15.833Z,19.66
2019-06-08T19:12:42.874Z,19.49
2019-06-08T19:15:11.441Z,19.40
2019-06-08T19:17:45.784Z,19.24
2019-06-08T19:20:05.017Z,19.06
2019-06-08T19:22:30.841Z,18.94
2019-06-08T19:24:56.621Z,18.90
2019-06-08T19:27:22.724Z,18.99
2019-06-08T19:29:51.414Z,18.83
2019-06-08T19:32:17.076Z,18.79
2019-06-08T19:34:43.930Z,18.70
2019-06-08T19:37:11.330Z,18.72
2019-06-08T19:39:39.619Z,18.66
2019-06-08T19:42:04.929Z,18.56
2019-06-08T19:44:30.737Z,18.36
2019-06-08T19:46:57.467Z,18.30
2019-06-08T19:49:23.401Z,18.17
2019-06-08T19:51:53.802Z,18.13
2019-06-08T19:54:18.234Z,18.06
2019-06-08T19:56:47.713Z,17.76
2019-06-08T19:59:12.054Z,17.68
2019-06-08T20:01:37.991Z,17.68
2019-06-08T20:04:03.863Z,17.48
2019-06-08T20:06:29.679Z,17.38
2019-06-08T20:08:57.498Z,17.29
2019-06-08T20:11:23.258Z,17.28
2019-06-08T20:13:50.416Z,17.22
2019-06-08T20:16:17.424Z,17.18
2019-06-08T20:18:43.632Z,17.16
2019-06-08T20:21:11.902Z,17.01
2019-06-08T20:23:38.234Z,17.01
2019-06-08T20:26:04.333Z,17.00
2019-06-08T20:28:30.149Z,17.02
2019-06-08T20:31:01.036Z,16.95
2019-06-08T20:33:27.311Z,16.93
2019-06-08T20:35:54.314Z,16.90
2019-06-08T20:38:34.001Z,16.83
2019-06-08T20:40:48.140Z,16.68
2019-06-08T20:43:14.020Z,16.58
2019-06-08T20:45:39.854Z,16.47
2019-06-08T20:48:06.035Z,16.39
2019-06-08T20:50:31.855Z,16.31
2019-06-08T20:53:00.477Z,16.27
2019-06-08T20:55:28.224Z,16.22
2019-06-08T20:57:57.615Z,16.22
2019-06-08T21:00:23.604Z,16.25
2019-06-08T21:02:51.496Z,16.15
2019-06-08T21:05:18.249Z,16.06
2019-06-08T21:07:45.453Z,16.07
2019-06-08T21:10:12.423Z,15.95
2019-06-08T21:12:41.408Z,15.86
2019-06-08T21:15:07.469Z,15.86
2019-06-08T21:17:33.284Z,15.80
2019-06-08T21:19:59.072Z,15.82
2019-06-08T21:22:24.903Z,15.95
2019-06-08T21:24:53.670Z,15.94
2019-06-08T21:27:18.669Z,15.90
2019-06-08T21:29:55.437Z,15.87
2019-06-08T21:32:17.587Z,15.79
2019-06-08T21:34:42.920Z,15.68
2019-06-08T21:37:09.157Z,15.46
2019-06-08T21:39:38.556Z,14.94
2019-06-08T21:42:03.492Z,14.55
2019-06-08T21:44:30.879Z,14.16
2019-06-08T21:46:59.889Z,14.10
2019-06-08T21:49:24.620Z,14.14
2019-06-08T21:51:51.930Z,14.30
2019-06-08T21:54:18.129Z,14.52
2019-06-08T21:56:44.169Z,14.61
2019-06-08T21:59:10.016Z,14.60
2019-06-08T22:01:37.671Z,14.54
2019-06-08T22:04:04.024Z,14.52
2019-06-08T22:06:32.907Z,14.48
2019-06-08T22:09:01.225Z,14.55
2019-06-08T22:11:26.739Z,14.63
2019-06-08T22:13:52.811Z,14.59
2019-06-08T22:16:21.766Z,14.60
2019-06-08T22:18:47.618Z,14.56
2019-06-08T22:21:18.111Z,14.49
2019-06-08T22:23:43.857Z,14.41
2019-06-08T22:26:10.024Z,14.35
2019-06-08T22:28:37.728Z,14.47
2019-06-08T22:31:03.883Z,14.45
2019-06-08T22:33:29.713Z,14.50
2019-06-08T22:35:58.572Z,14.46
2019-06-08T22:38:23.502Z,14.38
2019-06-08T22:40:49.335Z,14.38
2019-06-08T22:43:20.406Z,14.33
2019-06-08T22:45:47.942Z,14.24
2019-06-08T22:48:13.680Z,14.09
2019-06-08T22:50:39.507Z,13.93
2019-06-08T22:53:08.323Z,13.96
2019-06-08T22:55:34.125Z,13.95
2019-06-08T22:58:03.040Z,14.04
2019-06-08T23:00:29.470Z,14.07
2019-06-08T23:02:56.758Z,13.90
2019-06-08T23:05:22.969Z,13.94
2019-06-08T23:07:48.943Z,13.95
2019-06-08T23:10:17.379Z,13.89
2019-06-08T23:12:43.009Z,13.87
2019-06-08T23:15:09.113Z,13.76
2019-06-08T23:17:34.932Z,13.73
2019-06-08T23:20:06.197Z,13.62
2019-06-08T23:22:32.681Z,13.62
2019-06-08T23:25:01.096Z,13.55
2019-06-08T23:27:27.195Z,13.46
2019-06-08T23:29:53.000Z,13.37
2019-06-08T23:32:19.102Z,13.38
2019-06-08T23:34:47.783Z,13.40
2019-06-08T23:37:14.198Z,13.36
2019-06-08T23:39:40.419Z,13.28
2019-06-08T23:42:06.255Z,13.12
2019-06-08T23:44:32.088Z,13.04
2019-06-08T23:46:59.755Z,13.04
2019-06-08T23:49:27.819Z,13.02
2019-06-08T23:51:53.597Z,13.10
2019-06-08T23:54:19.700Z,12.96
2019-06-08T23:56:48.260Z,12.91
2019-06-08T23:59:14.065Z,12.99
